Time;durP1;ratioP1;P1;durP2;ratioP2;P2;SDS_P1;SDS_P2;PMS_P1;PMS_P2;Temp;Humidity;BMP_temperature;BMP_pressure;BME280_temperature;BME280_humidity;BME280_pressure;Samples;Min_cycle;Max_cycle;Signal;HPM_P1;HPM_P2
2021/03/08 00:00:12;;;;;;;30.73;21.50;;;;;;;3.19;100.00;96491.81;5008498;28;20117;-52
2021/03/08 00:02:40;;;;;;;30.85;19.77;;;;;;;3.32;100.00;96489.25;5045604;28;20095;-53
2021/03/08 00:05:08;;;;;;;28.42;19.88;;;;;;;3.55;100.00;96493.81;5012772;28;20127;-50
2021/03/08 00:07:35;;;;;;;32.08;20.85;;;;;;;3.45;100.00;96494.53;5045054;28;20048;-54
2021/03/08 00:10:04;;;;;;;30.88;20.95;;;;;;;3.43;100.00;96497.22;5002854;28;20122;-48
2021/03/08 00:12:32;;;;;;;29.55;20.42;;;;;;;3.32;100.00;96490.09;5043666;28;20459;-49
2021/03/08 00:14:58;;;;;;;32.58;19.35;;;;;;;3.04;100.00;96491.03;5006698;28;23884;-51
2021/03/08 00:17:25;;;;;;;29.33;20.35;;;;;;;3.15;100.00;96494.72;5042098;28;20084;-53
2021/03/08 00:19:53;;;;;;;28.15;19.52;;;;;;;3.14;100.00;96495.66;5008918;28;20044;-56
2021/03/08 00:22:21;;;;;;;30.65;19.98;;;;;;;3.20;100.00;96490.03;5031444;28;20076;-49
2021/03/08 00:24:48;;;;;;;30.48;19.95;;;;;;;3.23;100.00;96497.66;5041595;28;20045;-54
2021/03/08 00:27:16;;;;;;;27.70;18.95;;;;;;;3.18;100.00;96494.53;5013101;28;20140;-51
2021/03/08 00:29:43;;;;;;;31.75;20.35;;;;;;;3.14;100.00;96498.28;5042894;28;20041;-55
2021/03/08 00:32:10;;;;;;;32.10;20.50;;;;;;;3.03;100.00;96498.97;5006841;28;20207;-50
2021/03/08 00:34:38;;;;;;;29.25;19.73;;;;;;;3.03;100.00;96499.78;5042291;28;20077;-54
2021/03/08 00:37:05;;;;;;;26.63;18.50;;;;;;;2.87;100.00;96500.84;5005313;28;20037;-49
2021/03/08 00:39:32;;;;;;;28.92;19.73;;;;;;;2.96;100.00;96498.50;5042190;28;20045;-50
2021/03/08 00:41:59;;;;;;;28.10;19.30;;;;;;;2.73;100.00;96499.94;5009879;28;20122;-52
2021/03/08 00:44:27;;;;;;;27.50;19.08;;;;;;;2.63;100.00;96500.63;5041567;28;20069;-54
2021/03/08 00:46:54;;;;;;;28.33;18.80;;;;;;;2.51;100.00;96503.06;5012816;28;20044;-51
2021/03/08 00:49:21;;;;;;;28.02;19.10;;;;;;;2.61;100.00;96491.16;5046449;28;20052;-50
2021/03/08 00:51:48;;;;;;;28.92;19.02;;;;;;;2.64;100.00;96479.69;5007629;28;20037;-53
2021/03/08 00:54:15;;;;;;;29.42;19.42;;;;;;;2.59;100.00;96464.34;5041499;28;20596;-51
2021/03/08 00:56:42;;;;;;;28.98;20.25;;;;;;;2.78;100.00;96461.44;5007079;28;20088;-48
2021/03/08 00:59:09;;;;;;;31.17;19.88;;;;;;;2.43;100.00;96455.81;5040299;28;20720;-52
2021/03/08 01:01:36;;;;;;;30.60;19.48;;;;;;;2.34;100.00;96472.84;5011393;28;20045;-49
2021/03/08 01:04:03;;;;;;;29.73;20.35;;;;;;;2.10;100.00;96472.56;5043434;28;20412;-51
2021/03/08 01:06:30;;;;;;;29.55;20.42;;;;;;;1.79;100.00;96483.09;5042102;28;20061;-54
2021/03/08 01:08:57;;;;;;;35.13;21.15;;;;;;;1.95;100.00;96483.88;5013795;28;20568;-53
2021/03/08 01:11:24;;;;;;;31.40;20.75;;;;;;;1.87;100.00;96476.53;5041845;28;20061;-55
2021/03/08 01:13:50;;;;;;;30.35;20.75;;;;;;;1.86;100.00;96482.69;5005894;28;20072;-50
2021/03/08 01:16:18;;;;;;;30.30;20.55;;;;;;;1.80;100.00;96477.84;5046802;28;20509;-51
2021/03/08 01:18:45;;;;;;;33.35;21.30;;;;;;;1.74;100.00;96482.56;5000228;28;20056;-50
2021/03/08 01:21:12;;;;;;;36.60;22.65;;;;;;;1.77;100.00;96477.19;5046614;28;20119;-46
2021/03/08 01:23:39;;;;;;;33.85;21.52;;;;;;;1.64;100.00;96475.28;4997679;28;20052;-53
2021/03/08 01:26:06;;;;;;;33.38;21.85;;;;;;;1.58;100.00;96478.25;5038707;28;20136;-52
2021/03/08 01:28:33;;;;;;;34.10;21.58;;;;;;;1.61;100.00;96467.66;5014537;28;20452;-52
2021/03/08 01:31:00;;;;;;;31.40;20.83;;;;;;;1.59;100.00;96460.91;5044228;28;20378;-49
2021/03/08 01:33:27;;;;;;;30.80;20.95;;;;;;;1.53;100.00;96464.69;5007873;28;20052;-50
2021/03/08 01:35:56;;;;;;;34.80;22.67;;;;;;;1.47;100.00;96461.59;5041553;28;20044;-51
2021/03/08 01:38:22;;;;;;;33.20;21.63;;;;;;;1.42;100.00;96461.88;5001518;28;20065;-51
2021/03/08 01:40:49;;;;;;;33.58;21.10;;;;;;;1.20;100.00;96462.25;5044165;28;20065;-51
2021/03/08 01:43:17;;;;;;;36.80;22.00;;;;;;;1.18;100.00;96462.34;5008861;28;20390;-50
2021/03/08 01:45:44;;;;;;;33.00;21.95;;;;;;;1.23;100.00;96462.09;5044676;28;20091;-48
2021/03/08 01:48:11;;;;;;;37.55;23.08;;;;;;;0.99;100.00;96461.72;5040995;28;20041;-54
2021/03/08 01:50:39;;;;;;;33.30;22.63;;;;;;;0.92;100.00;96471.59;5014887;28;20065;-52
2021/03/08 01:53:09;;;;;;;35.33;22.10;;;;;;;1.07;100.00;96461.31;5041128;28;21172;-49
2021/03/08 01:55:36;;;;;;;36.20;21.90;;;;;;;0.75;100.00;96474.28;5002526;28;20065;-53
2021/03/08 01:58:03;;;;;;;32.25;21.60;;;;;;;0.90;100.00;96476.06;5045870;28;20072;-53
2021/03/08 02:00:31;;;;;;;32.28;21.05;;;;;;;0.83;100.00;96481.69;5000752;28;20080;-53
2021/03/08 02:02:58;;;;;;;32.55;21.50;;;;;;;0.67;100.00;96472.13;5044752;28;20122;-48
2021/03/08 02:05:27;;;;;;;35.08;22.98;;;;;;;0.71;100.00;96472.78;5004176;28;20041;-54
2021/03/08 02:07:55;;;;;;;34.65;22.55;;;;;;;0.70;100.00;96471.97;5035894;28;20724;-51
2021/03/08 02:10:23;;;;;;;38.10;23.02;;;;;;;0.61;100.00;96466.44;5013510;28;20045;-49
2021/03/08 02:13:15;;;;;;;35.55;23.02;;;;;;;0.61;100.00;96466.44;5042512;28;20640;-50
2021/03/08 02:15:50;;;;;;;37.40;23.20;;;;;;;0.62;100.00;96461.16;4974884;28;20111;-47
2021/03/08 02:18:25;;;;;;;37.55;23.67;;;;;;;0.59;100.00;96456.16;5043922;28;20064;-51
2021/03/08 02:21:13;;;;;;;36.75;23.48;;;;;;;0.65;100.00;96455.81;5000108;28;20057;-51
2021/03/08 02:24:32;;;;;;;35.05;22.42;;;;;;;0.49;100.00;96449.78;5037642;28;20084;-48
2021/03/08 02:27:03;;;;;;;31.60;21.95;;;;;;;0.31;100.00;96458.53;5012803;28;20412;-48
2021/03/08 02:29:57;;;;;;;34.60;21.70;;;;;;;0.34;100.00;96455.78;5041952;28;20045;-52
2021/03/08 02:32:29;;;;;;;31.85;21.80;;;;;;;0.26;100.00;96473.50;5043428;28;20044;-50
2021/03/08 02:35:01;;;;;;;33.28;21.30;;;;;;;0.18;100.00;96464.38;5042790;28;20116;-49
2021/03/08 02:37:30;;;;;;;35.00;22.25;;;;;;;0.16;100.00;96466.22;5003527;28;20575;-52
2021/03/08 02:40:01;;;;;;;38.85;22.48;;;;;;;0.04;100.00;96458.25;5038427;28;20099;-51
2021/03/08 02:42:32;;;;;;;33.95;21.90;;;;;;;-0.05;100.00;96460.41;5003865;28;20033;-47
2021/03/08 02:45:00;;;;;;;34.10;22.48;;;;;;;-0.03;100.00;96463.75;5043718;28;20064;-52
2021/03/08 02:47:29;;;;;;;32.30;21.25;;;;;;;-0.08;100.00;96459.72;5004990;28;20069;-52
2021/03/08 02:49:58;;;;;;;31.75;21.88;;;;;;;-0.10;100.00;96458.97;5045309;28;20041;-50
2021/03/08 02:52:27;;;;;;;33.45;22.05;;;;;;;-0.09;100.00;96455.47;5020141;28;20092;-52
2021/03/08 02:54:57;;;;;;;36.88;22.00;;;;;;;-0.10;100.00;96465.00;5039812;28;20116;-52
2021/03/08 02:57:25;;;;;;;35.65;22.17;;;;;;;-0.20;100.00;96465.56;5009110;28;20041;-50
2021/03/08 02:59:53;;;;;;;34.10;21.67;;;;;;;-0.28;100.00;96468.50;5044365;28;20576;-50
2021/03/08 03:02:22;;;;;;;33.35;21.70;;;;;;;-0.21;100.00;96466.44;4998809;28;20507;-48
2021/03/08 03:04:51;;;;;;;33.50;20.98;;;;;;;-0.30;100.00;96468.59;5041453;28;20106;-50
2021/03/08 03:07:18;;;;;;;33.88;22.20;;;;;;;-0.36;100.00;96468.91;5016734;28;20064;-50
2021/03/08 03:09:46;;;;;;;36.08;22.27;;;;;;;-0.36;100.00;96465.47;5048525;28;20045;-47
2021/03/08 03:12:13;;;;;;;33.65;21.83;;;;;;;-0.31;100.00;96466.06;5010726;28;20464;-50
2021/03/08 03:14:41;;;;;;;33.05;21.83;;;;;;;-0.49;100.00;96466.09;5045775;28;20037;-49
2021/03/08 03:17:10;;;;;;;37.30;23.65;;;;;;;-0.44;100.00;96460.69;5014188;28;20132;-50
2021/03/08 03:19:39;;;;;;;35.05;22.83;;;;;;;-0.56;100.00;96463.91;5046540;28;20053;-52
2021/03/08 03:22:09;;;;;;;35.72;23.45;;;;;;;-0.47;100.00;96462.59;5008347;28;20065;-51
2021/03/08 03:24:36;;;;;;;33.20;22.90;;;;;;;-0.50;100.00;96464.44;5036074;28;20067;-49
2021/03/08 03:27:04;;;;;;;32.08;21.75;;;;;;;-0.65;100.00;96470.38;5046543;28;20103;-53
2021/03/08 03:29:32;;;;;;;29.65;20.15;;;;;;;-0.65;100.00;96462.63;5030652;28;20088;-53
2021/03/08 03:31:59;;;;;;;34.25;20.65;;;;;;;-0.72;100.00;96458.66;5045514;28;20076;-53
2021/03/08 03:34:26;;;;;;;33.78;21.35;;;;;;;-0.72;100.00;96456.91;5010632;28;20068;-52
2021/03/08 03:36:54;;;;;;;32.78;20.83;;;;;;;-0.62;100.00;96459.00;5044365;28;20072;-50
2021/03/08 03:39:23;;;;;;;32.47;21.40;;;;;;;-0.93;100.00;96470.88;5007827;28;20489;-49
2021/03/08 03:41:50;;;;;;;32.28;21.65;;;;;;;-0.77;100.00;96465.78;5046427;28;20041;-53
2021/03/08 03:44:16;;;;;;;33.00;21.00;;;;;;;-0.78;100.00;96474.47;5004087;28;20072;-51
2021/03/08 03:46:44;;;;;;;32.28;21.10;;;;;;;-0.82;100.00;96465.19;5049568;28;20079;-52
2021/03/08 03:49:11;;;;;;;34.97;22.02;;;;;;;-0.74;100.00;96474.25;5013829;28;20892;-48
2021/03/08 03:51:38;;;;;;;34.38;20.85;;;;;;;-0.69;100.00;96473.19;5047767;28;20468;-51
2021/03/08 03:54:06;;;;;;;32.15;21.75;;;;;;;-0.63;100.00;96478.06;5011166;28;20119;-49
2021/03/08 03:56:34;;;;;;;34.28;23.10;;;;;;;-0.82;100.00;96483.31;5043915;28;20041;-52
2021/03/08 03:59:04;;;;;;;37.35;21.98;;;;;;;-0.84;100.00;96487.72;5011413;28;20041;-53
2021/03/08 04:01:57;;;;;;;32.30;22.05;;;;;;;-0.98;100.00;96484.03;5042781;28;20041;-51
2021/03/08 04:04:30;;;;;;;37.40;22.13;;;;;;;-0.91;100.00;96491.53;5005001;28;20041;-48
2021/03/08 04:06:58;;;;;;;33.97;21.92;;;;;;;-0.93;100.00;96496.75;5044160;28;20057;-51
2021/03/08 04:09:25;;;;;;;33.20;22.05;;;;;;;-0.97;100.00;96495.22;5010564;28;20456;-50
2021/03/08 04:11:54;;;;;;;35.35;22.40;;;;;;;-0.97;100.00;96503.81;5046535;28;20065;-53
2021/03/08 04:14:23;;;;;;;38.90;23.77;;;;;;;-0.97;100.00;96497.81;5008336;28;20077;-50
2021/03/08 04:16:51;;;;;;;38.75;23.95;;;;;;;-1.05;100.00;96513.72;5046446;28;20040;-54
2021/03/08 04:19:20;;;;;;;38.63;24.23;;;;;;;-1.09;100.00;96511.34;5008224;28;20115;-53
2021/03/08 04:21:48;;;;;;;38.95;24.35;;;;;;;-1.12;100.00;96522.69;5043515;28;20041;-54
2021/03/08 04:24:17;;;;;;;41.40;24.50;;;;;;;-1.09;100.00;96527.72;5041296;28;20080;-53
2021/03/08 04:26:43;;;;;;;39.50;24.85;;;;;;;-1.10;100.00;96520.00;5018875;28;20049;-52
2021/03/08 04:29:12;;;;;;;35.38;22.98;;;;;;;-1.08;100.00;96528.53;5046317;28;20057;-48
2021/03/08 04:31:38;;;;;;;40.10;23.95;;;;;;;-1.04;100.00;96517.13;5011066;28;20076;-54
2021/03/08 04:34:06;;;;;;;37.08;23.13;;;;;;;-1.10;100.00;96518.28;5043695;28;20576;-48
2021/03/08 04:36:33;;;;;;;36.20;24.08;;;;;;;-1.13;100.00;96512.41;5011780;28;20520;-51
2021/03/08 04:39:00;;;;;;;35.17;23.45;;;;;;;-1.20;100.00;96507.53;5043752;28;20040;-51
2021/03/08 04:41:28;;;;;;;37.30;23.42;;;;;;;-1.21;100.00;96507.56;5010871;28;20452;-53
2021/03/08 04:43:56;;;;;;;33.97;22.38;;;;;;;-1.28;100.00;96506.19;5041534;28;20413;-49
2021/03/08 04:46:24;;;;;;;32.90;22.38;;;;;;;-1.22;100.00;96500.72;5006891;28;20128;-51
2021/03/08 04:48:52;;;;;;;34.92;21.88;;;;;;;-1.15;100.00;96499.53;5046173;28;20045;-55
2021/03/08 04:51:19;;;;;;;36.47;22.45;;;;;;;-1.09;100.00;96496.66;5014030;28;20040;-50
2021/03/08 04:53:46;;;;;;;39.10;24.17;;;;;;;-1.07;100.00;96488.81;5047505;28;20045;-49
2021/03/08 04:56:32;;;;;;;35.15;21.98;;;;;;;-1.06;100.00;96493.94;5009768;28;20037;-53
2021/03/08 04:58:59;;;;;;;31.20;20.17;;;;;;;-1.16;100.00;96504.78;5042127;28;20041;-53
2021/03/08 05:01:31;;;;;;;33.65;22.38;;;;;;;-0.97;100.00;96508.16;5005200;28;20131;-54
2021/03/08 05:03:59;;;;;;;32.17;21.15;;;;;;;-1.01;100.00;96517.00;5043097;28;20056;-51
2021/03/08 05:06:27;;;;;;;31.05;20.35;;;;;;;-1.30;100.00;96516.63;5007739;28;20079;-50
2021/03/08 05:08:54;;;;;;;35.13;22.67;;;;;;;-1.41;100.00;96523.19;5041760;28;20068;-48
2021/03/08 05:11:21;;;;;;;35.05;22.15;;;;;;;-1.45;100.00;96531.06;5011029;28;20119;-49
2021/03/08 05:13:49;;;;;;;32.70;21.10;;;;;;;-1.39;100.00;96532.56;5045977;28;20049;-49
2021/03/08 05:16:17;;;;;;;34.28;20.90;;;;;;;-1.44;100.00;96525.00;5045742;28;20041;-51
2021/03/08 05:18:45;;;;;;;32.92;20.92;;;;;;;-1.43;100.00;96533.59;5025375;28;20467;-49
2021/03/08 05:21:14;;;;;;;33.13;22.58;;;;;;;-1.37;100.00;96533.34;5043967;28;20386;-53
2021/03/08 05:23:42;;;;;;;33.33;21.77;;;;;;;-1.50;100.00;96533.03;5002757;28;20041;-52
2021/03/08 05:26:09;;;;;;;31.73;20.38;;;;;;;-1.58;100.00;96542.91;5044283;28;20532;-55
2021/03/08 05:28:36;;;;;;;31.80;20.35;;;;;;;-1.48;100.00;96548.47;5006007;28;20134;-53
2021/03/08 05:31:03;;;;;;;33.42;21.13;;;;;;;-1.52;100.00;96549.53;5046467;28;20060;-55
2021/03/08 05:33:31;;;;;;;34.85;21.05;;;;;;;-1.43;100.00;96549.13;5008823;28;20587;-53
2021/03/08 05:36:00;;;;;;;32.05;20.15;;;;;;;-1.37;100.00;96538.50;5036889;28;20515;-48
2021/03/08 05:38:28;;;;;;;27.38;19.35;;;;;;;-1.39;100.00;96542.91;5010857;28;20052;-49
2021/03/08 05:41:05;;;;;;;31.05;20.40;;;;;;;-1.32;100.00;96535.69;5043252;28;20448;-49
2021/03/08 05:43:34;;;;;;;30.88;20.40;;;;;;;-1.30;100.00;96541.66;5007516;28;20069;-49
2021/03/08 05:46:05;;;;;;;30.17;20.20;;;;;;;-1.11;100.00;96542.47;5040646;28;20033;-48
2021/03/08 05:49:09;;;;;;;29.08;19.65;;;;;;;-1.24;100.00;96533.59;5004099;28;20454;-53
2021/03/08 05:52:18;;;;;;;30.73;20.60;;;;;;;-1.27;100.00;96541.50;5044442;28;20068;-53
2021/03/08 05:55:06;;;;;;;28.58;19.77;;;;;;;-1.09;100.00;96545.00;4968351;28;20068;-52
2021/03/08 05:57:44;;;;;;;31.80;20.05;;;;;;;-0.95;100.00;96558.13;5039005;28;20456;-51
2021/03/08 06:00:19;;;;;;;26.75;18.92;;;;;;;-1.09;100.00;96555.34;5011667;28;20060;-54
2021/03/08 06:02:53;;;;;;;31.40;20.40;;;;;;;-1.36;100.00;96558.28;5040143;28;20037;-51
2021/03/08 06:05:54;;;;;;;30.27;19.25;;;;;;;-1.39;100.00;96565.34;5005064;28;20042;-54
2021/03/08 06:08:45;;;;;;;29.05;19.85;;;;;;;-1.23;100.00;96554.22;5029170;28;20048;-53
2021/03/08 06:11:13;;;;;;;29.63;20.23;;;;;;;-1.07;100.00;96556.94;5038282;28;20407;-52
2021/03/08 06:13:49;;;;;;;31.20;20.48;;;;;;;-1.15;100.00;96561.63;5005208;28;20517;-49
2021/03/08 06:16:18;;;;;;;30.05;19.52;;;;;;;-1.16;100.00;96564.31;5044244;28;20122;-48
2021/03/08 06:18:48;;;;;;;29.02;19.98;;;;;;;-1.03;100.00;96555.06;5021081;28;20041;-51
2021/03/08 06:21:16;;;;;;;27.90;19.67;;;;;;;-0.86;100.00;96556.84;5038424;28;20154;-49
2021/03/08 06:23:44;;;;;;;29.10;19.40;;;;;;;-0.68;100.00;96568.09;5034341;28;20528;-50
2021/03/08 06:26:13;;;;;;;28.23;20.13;;;;;;;-0.54;100.00;96569.09;5010972;28;20092;-50
2021/03/08 06:28:40;;;;;;;28.23;18.95;;;;;;;-0.37;100.00;96570.03;5041137;28;20049;-49
2021/03/08 06:31:08;;;;;;;32.13;20.70;;;;;;;-0.55;100.00;96582.09;4997033;28;20068;-54
2021/03/08 06:33:51;;;;;;;29.02;19.30;;;;;;;-0.37;100.00;96578.66;5045443;28;20036;-49
2021/03/08 06:36:18;;;;;;;29.40;20.88;;;;;;;-0.26;100.00;96578.13;5002534;28;20045;-49
2021/03/08 06:38:46;;;;;;;25.25;18.88;;;;;;;-0.13;100.00;96584.38;5043322;28;20061;-51
2021/03/08 06:41:14;;;;;;;29.33;19.60;;;;;;;0.06;100.00;96579.09;5009302;28;20219;-53
2021/03/08 06:43:41;;;;;;;27.00;18.48;;;;;;;0.04;100.00;96586.13;5043376;28;20045;-51
2021/03/08 06:46:08;;;;;;;25.80;18.70;;;;;;;0.25;100.00;96579.00;5011994;28;20099;-53
2021/03/08 06:48:35;;;;;;;28.67;19.42;;;;;;;0.22;100.00;96587.78;5041548;28;20048;-48
2021/03/08 06:51:09;;;;;;;28.15;18.50;;;;;;;0.32;100.00;96593.34;5005768;28;20081;-48
2021/03/08 06:53:39;;;;;;;24.23;18.17;;;;;;;0.29;100.00;96597.84;5041373;28;20037;-52
2021/03/08 06:56:17;;;;;;;27.05;18.50;;;;;;;0.16;100.00;96595.84;5005997;28;21243;-48
2021/03/08 06:58:45;;;;;;;24.98;17.95;;;;;;;0.53;100.00;96590.56;5046838;28;20040;-53
2021/03/08 07:01:13;;;;;;;27.85;19.02;;;;;;;0.80;100.00;96588.25;5010039;28;20036;-51
2021/03/08 07:03:40;;;;;;;28.90;20.63;;;;;;;0.86;100.00;96595.69;5041148;28;20585;-52
2021/03/08 07:06:15;;;;;;;24.13;17.70;;;;;;;0.98;100.00;96589.03;5012884;28;20033;-50
2021/03/08 07:08:44;;;;;;;28.58;18.25;;;;;;;0.99;100.00;96601.09;5042900;28;20455;-50
2021/03/08 07:11:16;;;;;;;22.73;17.08;;;;;;;0.78;100.00;96598.72;5006887;28;20068;-49
2021/03/08 07:13:43;;;;;;;23.30;18.02;;;;;;;1.11;100.00;96609.06;5042322;28;20033;-52
2021/03/08 07:16:10;;;;;;;29.48;18.77;;;;;;;1.34;100.00;96600.03;5002262;28;20037;-54
2021/03/08 07:18:37;;;;;;;28.98;18.98;;;;;;;1.55;100.00;96602.31;5043479;28;20561;-48
2021/03/08 07:21:17;;;;;;;23.63;18.30;;;;;;;1.73;100.00;96605.66;5042677;28;20041;-52
2021/03/08 07:23:47;;;;;;;24.50;17.27;;;;;;;1.83;100.00;96606.81;5039135;28;20099;-53
2021/03/08 07:26:16;;;;;;;25.48;17.27;;;;;;;1.98;100.00;96610.31;5039300;28;20619;-48
2021/03/08 07:28:43;;;;;;;23.50;16.60;;;;;;;1.89;100.00;96616.84;5016581;28;20037;-48
2021/03/08 07:31:34;;;;;;;23.88;17.58;;;;;;;1.74;100.00;96608.16;5042714;28;20033;-52
2021/03/08 07:34:02;;;;;;;24.38;17.95;;;;;;;1.79;100.00;96611.34;5032286;28;20136;-54
2021/03/08 07:36:29;;;;;;;21.55;16.58;;;;;;;1.72;100.00;96612.63;5049366;28;20079;-53
2021/03/08 07:38:56;;;;;;;22.17;16.85;;;;;;;1.41;100.00;96609.16;5010073;28;20487;-49
2021/03/08 07:41:24;;;;;;;20.17;16.67;;;;;;;1.96;100.00;96612.13;5045970;28;20420;-52
2021/03/08 07:44:05;;;;;;;22.65;18.45;;;;;;;1.61;100.00;96607.19;5015005;28;20502;-51
2021/03/08 07:46:33;;;;;;;24.27;17.48;;;;;;;1.73;100.00;96610.88;5046990;28;20072;-50
2021/03/08 07:49:02;;;;;;;24.23;17.33;;;;;;;2.32;100.00;96614.38;5013818;28;20045;-56
2021/03/08 07:51:29;;;;;;;24.58;16.48;;;;;;;2.39;100.00;96615.69;5042432;28;20409;-51
2021/03/08 07:53:59;;;;;;;21.27;16.58;;;;;;;1.99;100.00;96609.38;5006037;28;20142;-51
2021/03/08 07:56:27;;;;;;;21.30;16.80;;;;;;;2.48;100.00;96617.75;5047645;28;20056;-50
2021/03/08 07:58:55;;;;;;;25.40;16.58;;;;;;;2.61;100.00;96616.09;5000814;28;20079;-53
2021/03/08 08:01:22;;;;;;;23.88;17.23;;;;;;;2.84;100.00;96625.13;5051118;28;20041;-52
2021/03/08 08:03:50;;;;;;;20.90;16.17;;;;;;;3.05;100.00;96627.34;5010659;28;20040;-55
2021/03/08 08:06:20;;;;;;;22.63;16.65;;;;;;;3.18;100.00;96619.59;5039562;28;20069;-51
2021/03/08 08:08:48;;;;;;;20.73;16.17;;;;;;;3.08;100.00;96625.38;5016213;28;20077;-51
2021/03/08 08:11:17;;;;;;;20.40;15.48;;;;;;;3.24;100.00;96625.28;5043363;28;20044;-50
2021/03/08 08:13:47;;;;;;;20.42;16.10;;;;;;;3.60;100.00;96625.66;5010845;28;20064;-50
2021/03/08 08:16:14;;;;;;;21.50;14.95;;;;;;;3.38;100.00;96632.22;5042353;28;20041;-51
2021/03/08 08:18:42;;;;;;;20.67;15.38;;;;;;;3.28;100.00;96613.72;5007101;28;24493;-53
2021/03/08 08:21:15;;;;;;;19.63;15.63;;;;;;;3.37;100.00;96619.28;5046490;28;20127;-55
2021/03/08 08:23:55;;;;;;;18.33;14.93;;;;;;;3.29;100.00;96627.59;5002459;28;20044;-47
2021/03/08 08:26:25;;;;;;;18.42;14.93;;;;;;;3.73;100.00;96616.13;5029648;28;20052;-55
2021/03/08 08:28:54;;;;;;;22.27;15.27;;;;;;;3.75;100.00;96619.44;5026020;28;20040;-54
2021/03/08 08:31:21;;;;;;;20.85;15.43;;;;;;;3.61;100.00;96628.16;5047389;28;20115;-50
2021/03/08 08:33:48;;;;;;;17.98;14.85;;;;;;;3.62;100.00;96629.03;5041377;28;20048;-54
2021/03/08 08:36:18;;;;;;;23.80;15.88;;;;;;;3.62;100.00;96624.63;4994753;28;20045;-53
2021/03/08 08:39:11;;;;;;;18.53;15.20;;;;;;;3.81;100.00;96622.50;5043773;28;20516;-53
2021/03/08 08:41:39;;;;;;;22.15;15.77;;;;;;;3.72;100.00;96635.31;5034184;28;20076;-49
2021/03/08 08:44:39;;;;;;;19.52;16.08;;;;;;;3.60;100.00;96636.09;5043931;28;20099;-53
2021/03/08 08:47:19;;;;;;;22.75;16.35;;;;;;;3.79;100.00;96628.78;5047034;28;20136;-50
2021/03/08 08:49:48;;;;;;;21.00;15.85;;;;;;;4.09;100.00;96628.53;5011022;28;20052;-52
2021/03/08 08:52:16;;;;;;;20.38;15.13;;;;;;;4.02;100.00;96633.31;5042951;28;20056;-50
2021/03/08 08:54:50;;;;;;;23.30;16.45;;;;;;;4.18;100.00;96621.88;5039294;28;20136;-53
2021/03/08 08:57:20;;;;;;;20.73;16.20;;;;;;;4.16;100.00;96624.56;5025465;28;20039;-51
2021/03/08 09:00:13;;;;;;;21.45;17.17;;;;;;;4.49;100.00;96629.34;5046582;28;20053;-52
2021/03/08 09:02:40;;;;;;;21.40;16.02;;;;;;;4.52;100.00;96623.91;5043958;28;20048;-54
2021/03/08 09:05:41;;;;;;;20.85;15.70;;;;;;;4.44;100.00;96625.34;5042924;28;20049;-51
2021/03/08 09:08:25;;;;;;;21.52;15.48;;;;;;;4.36;100.00;96622.44;5038485;28;20509;-51
2021/03/08 09:10:52;;;;;;;19.33;16.08;;;;;;;4.59;100.00;96621.72;5005358;28;22401;-52
2021/03/08 09:13:18;;;;;;;20.75;15.45;;;;;;;4.75;100.00;96631.97;5044772;28;20116;-55
2021/03/08 09:15:46;;;;;;;19.83;15.85;;;;;;;4.60;100.00;96627.78;5008379;28;20099;-51
2021/03/08 09:18:13;;;;;;;20.83;16.90;;;;;;;4.74;100.00;96628.50;5036415;28;20069;-53
2021/03/08 09:20:43;;;;;;;21.48;16.38;;;;;;;4.59;100.00;96628.72;5040546;28;20048;-51
2021/03/08 09:23:23;;;;;;;19.05;15.43;;;;;;;4.55;100.00;96627.28;4993514;28;20457;-53
2021/03/08 09:25:56;;;;;;;20.77;15.73;;;;;;;4.60;100.00;96630.41;5042058;28;20037;-52
2021/03/08 09:28:22;;;;;;;20.67;15.52;;;;;;;5.14;100.00;96622.31;5009459;28;20091;-56
2021/03/08 09:30:50;;;;;;;19.00;15.18;;;;;;;5.13;97.41;96628.50;5041569;28;20094;-54
2021/03/08 09:33:18;;;;;;;19.52;14.90;;;;;;;5.24;95.76;96620.75;5017333;28;20044;-53
2021/03/08 09:35:47;;;;;;;18.17;15.20;;;;;;;5.46;91.51;96620.88;5042763;28;20047;-51
2021/03/08 09:38:16;;;;;;;17.17;14.98;;;;;;;5.26;92.17;96625.84;5002851;28;20420;-53
2021/03/08 09:40:45;;;;;;;17.15;13.98;;;;;;;5.18;86.41;96626.41;5047320;28;20493;-51
2021/03/08 09:43:22;;;;;;;18.98;15.32;;;;;;;5.22;87.01;96627.84;5001604;28;20037;-51
2021/03/08 09:45:58;;;;;;;17.77;14.30;;;;;;;5.33;92.23;96630.53;5038050;28;20110;-49
2021/03/08 09:48:26;;;;;;;15.57;13.45;;;;;;;5.41;89.42;96630.00;5008297;28;20687;-48
2021/03/08 09:51:10;;;;;;;18.73;14.98;;;;;;;5.35;89.08;96626.03;4946085;28;20054;-54
2021/03/08 09:53:39;;;;;;;16.20;13.10;;;;;;;5.18;82.12;96627.22;4992262;28;20413;-53
2021/03/08 09:59:28;;;;;;;17.83;14.32;;;;;;;5.83;77.73;96623.47;4985957;28;20037;-56
2021/03/08 10:01:57;;;;;;;17.10;12.65;;;;;;;5.36;74.92;96632.09;5045207;28;20044;-53
2021/03/08 10:04:24;;;;;;;15.40;13.35;;;;;;;5.28;74.27;96637.88;5006826;28;20380;-56
2021/03/08 10:07:05;;;;;;;16.30;13.25;;;;;;;5.52;79.95;96627.47;5034993;28;20386;-52
2021/03/08 10:09:32;;;;;;;14.15;10.90;;;;;;;5.21;77.08;96634.03;5004281;28;20472;-51
2021/03/08 10:12:02;;;;;;;13.25;11.35;;;;;;;5.61;76.88;96637.28;5041516;28;20064;-52
2021/03/08 10:14:30;;;;;;;16.27;12.55;;;;;;;5.58;71.13;96637.50;5011887;28;20122;-51
2021/03/08 10:17:05;;;;;;;15.45;11.95;;;;;;;5.88;71.91;96626.63;5040758;28;20041;-52
2021/03/08 10:19:33;;;;;;;15.05;12.30;;;;;;;5.88;74.56;96629.22;5002621;28;20046;-52
2021/03/08 10:22:01;;;;;;;13.25;11.65;;;;;;;5.89;77.54;96630.88;5043005;28;20532;-54
2021/03/08 10:24:38;;;;;;;13.73;12.00;;;;;;;5.80;67.51;96628.94;5002475;28;20571;-52
2021/03/08 10:27:10;;;;;;;13.20;11.43;;;;;;;5.51;71.38;96636.25;5045355;28;20103;-52
2021/03/08 10:29:38;;;;;;;14.77;12.00;;;;;;;5.94;66.82;96628.78;5008706;28;20064;-51
2021/03/08 10:32:07;;;;;;;18.52;12.18;;;;;;;5.99;67.00;96631.09;5044173;28;20215;-52
2021/03/08 10:34:34;;;;;;;12.75;11.20;;;;;;;6.07;65.55;96627.91;5016150;28;20048;-54
2021/03/08 10:37:08;;;;;;;11.35;10.02;;;;;;;5.60;65.35;96624.28;5041352;28;20044;-52
2021/03/08 10:39:35;;;;;;;16.38;10.95;;;;;;;5.53;65.39;96631.75;5008889;28;20080;-54
2021/03/08 10:42:02;;;;;;;13.85;11.38;;;;;;;5.87;66.23;96624.09;5039035;28;20041;-55
2021/03/08 10:44:29;;;;;;;12.40;10.57;;;;;;;5.97;65.12;96630.34;5006198;28;20045;-56
2021/03/08 10:46:56;;;;;;;13.43;11.30;;;;;;;6.49;65.42;96629.09;5043201;28;20040;-55
2021/03/08 10:49:24;;;;;;;11.68;9.68;;;;;;;6.45;65.39;96629.47;5017723;28;20049;-52
2021/03/08 10:51:51;;;;;;;15.13;10.88;;;;;;;6.28;70.09;96631.56;5044431;28;20465;-49
2021/03/08 10:54:20;;;;;;;14.98;11.07;;;;;;;6.67;66.41;96632.13;5041074;28;20052;-56
2021/03/08 10:56:47;;;;;;;11.60;9.88;;;;;;;6.76;58.14;96620.94;5013910;28;20045;-55
2021/03/08 10:59:24;;;;;;;12.85;9.98;;;;;;;6.70;58.67;96618.78;5043169;28;20053;-55
2021/03/08 11:02:01;;;;;;;12.52;10.80;;;;;;;6.61;65.21;96630.00;5002546;28;20040;-56
2021/03/08 11:04:29;;;;;;;11.27;9.75;;;;;;;6.42;65.92;96628.72;5042514;28;20053;-48
2021/03/08 11:06:57;;;;;;;13.45;9.68;;;;;;;6.50;52.76;96629.94;4997154;28;20037;-54
2021/03/08 11:09:28;;;;;;;12.27;10.25;;;;;;;6.86;52.87;96624.53;5044821;28;20076;-49
2021/03/08 11:11:55;;;;;;;12.60;10.30;;;;;;;6.29;52.82;96622.75;5012231;28;20119;-51
2021/03/08 11:14:22;;;;;;;11.60;9.48;;;;;;;6.60;52.38;96616.03;5045302;28;20032;-51
2021/03/08 11:16:51;;;;;;;11.10;9.98;;;;;;;6.88;57.99;96612.16;5014235;28;20103;-48
2021/03/08 11:19:18;;;;;;;14.30;10.18;;;;;;;6.65;55.00;96613.09;5048982;28;20106;-52
2021/03/08 11:21:47;;;;;;;12.00;10.10;;;;;;;6.53;63.36;96612.22;5003544;28;20049;-52
2021/03/08 11:24:19;;;;;;;11.60;9.77;;;;;;;6.80;54.56;96611.06;5035210;28;20046;-52
2021/03/08 11:27:12;;;;;;;11.02;8.25;;;;;;;6.79;54.92;96610.25;5004942;28;20417;-50
2021/03/08 11:29:40;;;;;;;11.32;9.05;;;;;;;6.84;51.61;96607.25;5042490;28;20076;-48
2021/03/08 11:32:08;;;;;;;10.98;8.55;;;;;;;6.69;52.94;96605.81;5003280;28;22000;-53
2021/03/08 11:34:38;;;;;;;9.43;8.43;;;;;;;6.71;53.27;96615.25;5046992;28;20124;-50